sensor_id;sensor_type;location;lat;lon;timestamp;pressure;altitude;pressure_sealevel;temperature;humidity
74403;BME280;62837;51.082;13.744;2022-11-15T00:01:51;100397.98;;;8.30;77.42
74403;BME280;62837;51.082;13.744;2022-11-15T00:04:41;100396.94;;;8.35;77.35
74403;BME280;62837;51.082;13.744;2022-11-15T00:07:30;100397.77;;;8.38;77.36
74403;BME280;62837;51.082;13.744;2022-11-15T00:10:37;100389.54;;;8.40;77.67
74403;BME280;62837;51.082;13.744;2022-11-15T00:13:27;100384.45;;;8.43;77.25
74403;BME280;62837;51.082;13.744;2022-11-15T00:16:17;100380.23;;;8.43;77.34
74403;BME280;62837;51.082;13.744;2022-11-15T00:19:07;100381.98;;;8.43;77.04
74403;BME280;62837;51.082;13.744;2022-11-15T00:21:57;100379.33;;;8.43;77.22
74403;BME280;62837;51.082;13.744;2022-11-15T00:24:46;100380.00;;;8.43;77.45
74403;BME280;62837;51.082;13.744;2022-11-15T00:27:35;100383.45;;;8.43;77.13
74403;BME280;62837;51.082;13.744;2022-11-15T00:30:25;100383.17;;;8.45;77.73
74403;BME280;62837;51.082;13.744;2022-11-15T00:33:15;100382.96;;;8.54;78.56
74403;BME280;62837;51.082;13.744;2022-11-15T00:36:06;100383.41;;;8.64;78.10
74403;BME280;62837;51.082;13.744;2022-11-15T00:38:57;100379.21;;;8.71;77.61
74403;BME280;62837;51.082;13.744;2022-11-15T00:41:46;100378.35;;;8.73;77.41
74403;BME280;62837;51.082;13.744;2022-11-15T00:44:36;100380.23;;;8.76;77.46
74403;BME280;62837;51.082;13.744;2022-11-15T00:47:25;100384.27;;;8.81;77.67
74403;BME280;62837;51.082;13.744;2022-11-15T00:50:15;100389.85;;;8.87;77.31
74403;BME280;62837;51.082;13.744;2022-11-15T00:53:05;100387.34;;;8.94;77.23
74403;BME280;62837;51.082;13.744;2022-11-15T00:55:54;100383.15;;;8.99;77.02
74403;BME280;62837;51.082;13.744;2022-11-15T00:58:44;100384.50;;;9.04;76.70
74403;BME280;62837;51.082;13.744;2022-11-15T01:01:33;100374.58;;;9.08;76.60
74403;BME280;62837;51.082;13.744;2022-11-15T01:04:23;100372.25;;;9.11;76.40
74403;BME280;62837;51.082;13.744;2022-11-15T01:07:13;100371.94;;;9.12;76.20
74403;BME280;62837;51.082;13.744;2022-11-15T01:10:02;100373.75;;;9.12;76.13
74403;BME280;62837;51.082;13.744;2022-11-15T01:12:52;100367.73;;;9.13;76.18
74403;BME280;62837;51.082;13.744;2022-11-15T01:15:43;100365.66;;;9.18;75.86
74403;BME280;62837;51.082;13.744;2022-11-15T01:18:32;100362.11;;;9.21;75.83
74403;BME280;62837;51.082;13.744;2022-11-15T01:21:21;100362.52;;;9.23;75.70
74403;BME280;62837;51.082;13.744;2022-11-15T01:24:13;100360.71;;;9.25;75.56
74403;BME280;62837;51.082;13.744;2022-11-15T01:27:02;100362.74;;;9.27;75.49
74403;BME280;62837;51.082;13.744;2022-11-15T01:29:51;100356.73;;;9.28;75.38
74403;BME280;62837;51.082;13.744;2022-11-15T01:32:41;100355.52;;;9.31;75.50
74403;BME280;62837;51.082;13.744;2022-11-15T01:35:31;100354.25;;;9.35;75.38
74403;BME280;62837;51.082;13.744;2022-11-15T01:38:20;100355.17;;;9.38;74.91
74403;BME280;62837;51.082;13.744;2022-11-15T01:41:16;100347.63;;;9.35;74.80
74403;BME280;62837;51.082;13.744;2022-11-15T01:44:34;100344.35;;;9.33;74.93
74403;BME280;62837;51.082;13.744;2022-11-15T01:47:28;100338.17;;;9.34;74.87
74403;BME280;62837;51.082;13.744;2022-11-15T01:50:22;100328.30;;;9.34;74.62
74403;BME280;62837;51.082;13.744;2022-11-15T01:53:13;100327.39;;;9.37;74.96
74403;BME280;62837;51.082;13.744;2022-11-15T01:56:06;100324.10;;;9.38;74.63
74403;BME280;62837;51.082;13.744;2022-11-15T01:58:58;100316.58;;;9.37;74.48
74403;BME280;62837;51.082;13.744;2022-11-15T02:01:51;100311.58;;;9.36;74.62
74403;BME280;62837;51.082;13.744;2022-11-15T02:04:43;100308.29;;;9.36;74.57
74403;BME280;62837;51.082;13.744;2022-11-15T02:07:34;100309.78;;;9.37;74.52
74403;BME280;62837;51.082;13.744;2022-11-15T02:10:24;100312.41;;;9.37;74.49
74403;BME280;62837;51.082;13.744;2022-11-15T02:13:15;100310.50;;;9.38;74.48
74403;BME280;62837;51.082;13.744;2022-11-15T02:16:13;100314.22;;;9.36;74.48
74403;BME280;62837;51.082;13.744;2022-11-15T02:19:18;100304.73;;;9.33;74.29
74403;BME280;62837;51.082;13.744;2022-11-15T02:22:28;100306.37;;;9.29;74.30
74403;BME280;62837;51.082;13.744;2022-11-15T02:25:36;100302.38;;;9.26;74.41
74403;BME280;62837;51.082;13.744;2022-11-15T02:28:45;100301.61;;;9.23;74.62
74403;BME280;62837;51.082;13.744;2022-11-15T02:31:42;100307.16;;;9.23;74.51
74403;BME280;62837;51.082;13.744;2022-11-15T02:34:38;100307.70;;;9.23;74.65
74403;BME280;62837;51.082;13.744;2022-11-15T02:37:37;100301.58;;;9.24;74.72
74403;BME280;62837;51.082;13.744;2022-11-15T02:40:37;100294.45;;;9.25;74.63
74403;BME280;62837;51.082;13.744;2022-11-15T02:43:33;100290.07;;;9.22;74.63
74403;BME280;62837;51.082;13.744;2022-11-15T02:46:45;100282.52;;;9.23;74.70
74403;BME280;62837;51.082;13.744;2022-11-15T02:49:57;100272.46;;;9.23;74.54
74403;BME280;62837;51.082;13.744;2022-11-15T02:52:50;100266.42;;;9.21;74.63
74403;BME280;62837;51.082;13.744;2022-11-15T02:55:43;100265.82;;;9.21;74.55
74403;BME280;62837;51.082;13.744;2022-11-15T02:59:03;100265.63;;;9.20;74.72
74403;BME280;62837;51.082;13.744;2022-11-15T03:02:06;100261.02;;;9.23;74.47
74403;BME280;62837;51.082;13.744;2022-11-15T03:05:01;100264.90;;;9.25;74.48
74403;BME280;62837;51.082;13.744;2022-11-15T03:07:57;100258.98;;;9.26;74.39
74403;BME280;62837;51.082;13.744;2022-11-15T03:10:56;100261.98;;;9.26;74.27
74403;BME280;62837;51.082;13.744;2022-11-15T03:13:55;100260.40;;;9.27;74.43
74403;BME280;62837;51.082;13.744;2022-11-15T03:16:49;100256.95;;;9.26;74.47
74403;BME280;62837;51.082;13.744;2022-11-15T03:19:43;100249.48;;;9.25;74.28
74403;BME280;62837;51.082;13.744;2022-11-15T03:22:36;100252.23;;;9.27;74.25
74403;BME280;62837;51.082;13.744;2022-11-15T03:25:27;100250.42;;;9.27;74.01
74403;BME280;62837;51.082;13.744;2022-11-15T03:28:23;100248.55;;;9.27;74.23
74403;BME280;62837;51.082;13.744;2022-11-15T03:31:16;100249.75;;;9.29;74.19
74403;BME280;62837;51.082;13.744;2022-11-15T03:34:43;100240.23;;;9.33;74.11
74403;BME280;62837;51.082;13.744;2022-11-15T03:37:37;100237.06;;;9.33;74.14
74403;BME280;62837;51.082;13.744;2022-11-15T03:40:32;100237.24;;;9.34;74.29
74403;BME280;62837;51.082;13.744;2022-11-15T03:43:28;100244.73;;;9.35;74.04
74403;BME280;62837;51.082;13.744;2022-11-15T03:46:25;100243.84;;;9.39;74.08
74403;BME280;62837;51.082;13.744;2022-11-15T03:49:19;100237.29;;;9.42;73.83
74403;BME280;62837;51.082;13.744;2022-11-15T03:52:12;100233.75;;;9.40;73.98
74403;BME280;62837;51.082;13.744;2022-11-15T03:55:04;100234.27;;;9.43;74.03
74403;BME280;62837;51.082;13.744;2022-11-15T03:57:55;100229.92;;;9.45;73.67
74403;BME280;62837;51.082;13.744;2022-11-15T04:00:46;100227.06;;;9.45;73.77
74403;BME280;62837;51.082;13.744;2022-11-15T04:03:36;100221.08;;;9.44;73.47
74403;BME280;62837;51.082;13.744;2022-11-15T04:06:26;100224.33;;;9.45;73.59
74403;BME280;62837;51.082;13.744;2022-11-15T04:09:15;100222.74;;;9.47;73.64
74403;BME280;62837;51.082;13.744;2022-11-15T04:12:05;100225.59;;;9.50;73.53
74403;BME280;62837;51.082;13.744;2022-11-15T04:14:55;100222.55;;;9.53;73.51
74403;BME280;62837;51.082;13.744;2022-11-15T04:17:57;100217.52;;;9.56;73.21
74403;BME280;62837;51.082;13.744;2022-11-15T04:20:47;100218.73;;;9.55;73.30
74403;BME280;62837;51.082;13.744;2022-11-15T04:23:54;100218.59;;;9.56;73.21
74403;BME280;62837;51.082;13.744;2022-11-15T04:27:02;100217.15;;;9.57;73.21
74403;BME280;62837;51.082;13.744;2022-11-15T04:29:52;100219.73;;;9.57;73.13
74403;BME280;62837;51.082;13.744;2022-11-15T04:32:41;100213.09;;;9.57;72.82
74403;BME280;62837;51.082;13.744;2022-11-15T04:35:31;100211.46;;;9.54;72.86
74403;BME280;62837;51.082;13.744;2022-11-15T04:38:21;100209.80;;;9.52;72.92
74403;BME280;62837;51.082;13.744;2022-11-15T04:41:10;100206.69;;;9.54;72.79
74403;BME280;62837;51.082;13.744;2022-11-15T04:44:00;100204.27;;;9.54;72.92
74403;BME280;62837;51.082;13.744;2022-11-15T04:46:49;100205.99;;;9.55;73.01
74403;BME280;62837;51.082;13.744;2022-11-15T04:49:39;100202.05;;;9.55;72.61
74403;BME280;62837;51.082;13.744;2022-11-15T04:52:28;100202.59;;;9.54;72.93
74403;BME280;62837;51.082;13.744;2022-11-15T04:55:18;100207.11;;;9.56;72.65
74403;BME280;62837;51.082;13.744;2022-11-15T04:58:08;100206.34;;;9.51;72.36
74403;BME280;62837;51.082;13.744;2022-11-15T05:00:58;100203.70;;;9.47;72.37
74403;BME280;62837;51.082;13.744;2022-11-15T05:03:47;100200.93;;;9.40;72.33
74403;BME280;62837;51.082;13.744;2022-11-15T05:06:55;100202.05;;;9.38;72.57
74403;BME280;62837;51.082;13.744;2022-11-15T05:09:45;100198.95;;;9.40;72.76
74403;BME280;62837;51.082;13.744;2022-11-15T05:12:34;100197.21;;;9.37;72.43
74403;BME280;62837;51.082;13.744;2022-11-15T05:15:23;100192.79;;;9.30;72.37
74403;BME280;62837;51.082;13.744;2022-11-15T05:18:13;100194.05;;;9.21;72.49
74403;BME280;62837;51.082;13.744;2022-11-15T05:21:11;100191.86;;;9.18;72.46
74403;BME280;62837;51.082;13.744;2022-11-15T05:24:01;100190.32;;;9.08;72.42
74403;BME280;62837;51.082;13.744;2022-11-15T05:26:50;100187.30;;;8.96;72.46
74403;BME280;62837;51.082;13.744;2022-11-15T05:29:39;100186.87;;;8.93;73.12
74403;BME280;62837;51.082;13.744;2022-11-15T05:32:30;100182.70;;;8.96;73.32
74403;BME280;62837;51.082;13.744;2022-11-15T05:35:24;100180.41;;;9.02;73.54
74403;BME280;62837;51.082;13.744;2022-11-15T05:38:14;100185.70;;;9.07;73.04
74403;BME280;62837;51.082;13.744;2022-11-15T05:41:05;100187.74;;;9.04;73.41
74403;BME280;62837;51.082;13.744;2022-11-15T05:43:55;100190.01;;;9.05;73.05
74403;BME280;62837;51.082;13.744;2022-11-15T05:46:45;100190.16;;;8.96;72.86
74403;BME280;62837;51.082;13.744;2022-11-15T05:49:38;100189.75;;;8.90;72.90
74403;BME280;62837;51.082;13.744;2022-11-15T05:52:31;100191.70;;;8.85;72.54
74403;BME280;62837;51.082;13.744;2022-11-15T05:55:22;100191.61;;;8.68;72.09
74403;BME280;62837;51.082;13.744;2022-11-15T05:58:12;100191.52;;;8.44;72.16
74403;BME280;62837;51.082;13.744;2022-11-15T06:01:02;100182.96;;;8.36;72.84
74403;BME280;62837;51.082;13.744;2022-11-15T06:03:51;100184.09;;;8.38;73.24
74403;BME280;62837;51.082;13.744;2022-11-15T06:06:41;100179.42;;;8.46;73.66
74403;BME280;62837;51.082;13.744;2022-11-15T06:09:30;100182.44;;;8.56;73.64
74403;BME280;62837;51.082;13.744;2022-11-15T06:12:20;100183.01;;;8.68;73.74
74403;BME280;62837;51.082;13.744;2022-11-15T06:15:11;100182.48;;;8.77;73.72
74403;BME280;62837;51.082;13.744;2022-11-15T06:18:01;100184.80;;;8.82;73.47
74403;BME280;62837;51.082;13.744;2022-11-15T06:20:50;100188.70;;;8.83;73.19
74403;BME280;62837;51.082;13.744;2022-11-15T06:23:40;100189.71;;;8.73;72.77
74403;BME280;62837;51.082;13.744;2022-11-15T06:26:29;100191.64;;;8.55;72.63
74403;BME280;62837;51.082;13.744;2022-11-15T06:29:19;100191.58;;;8.32;72.79
74403;BME280;62837;51.082;13.744;2022-11-15T06:32:09;100197.52;;;8.10;73.10
74403;BME280;62837;51.082;13.744;2022-11-15T06:34:58;100209.70;;;7.92;73.44
74403;BME280;62837;51.082;13.744;2022-11-15T06:37:48;100214.52;;;7.71;73.81
74403;BME280;62837;51.082;13.744;2022-11-15T06:40:38;100213.70;;;7.55;74.13
74403;BME280;62837;51.082;13.744;2022-11-15T06:43:28;100216.21;;;7.48;74.41
74403;BME280;62837;51.082;13.744;2022-11-15T06:46:18;100207.72;;;7.43;74.41
74403;BME280;62837;51.082;13.744;2022-11-15T06:49:07;100203.09;;;7.41;74.62
74403;BME280;62837;51.082;13.744;2022-11-15T06:51:57;100202.45;;;7.40;74.60
74403;BME280;62837;51.082;13.744;2022-11-15T06:54:46;100204.45;;;7.37;74.93
74403;BME280;62837;51.082;13.744;2022-11-15T06:57:37;100213.80;;;7.40;75.34
74403;BME280;62837;51.082;13.744;2022-11-15T07:00:26;100215.12;;;7.46;75.42
74403;BME280;62837;51.082;13.744;2022-11-15T07:03:16;100209.77;;;7.50;74.78
74403;BME280;62837;51.082;13.744;2022-11-15T07:06:06;100207.03;;;7.52;74.71
74403;BME280;62837;51.082;13.744;2022-11-15T07:08:56;100209.61;;;7.53;74.82
74403;BME280;62837;51.082;13.744;2022-11-15T07:11:45;100206.39;;;7.61;74.93
74403;BME280;62837;51.082;13.744;2022-11-15T07:14:35;100209.77;;;7.75;75.25
74403;BME280;62837;51.082;13.744;2022-11-15T07:17:25;100211.64;;;7.94;75.17
74403;BME280;62837;51.082;13.744;2022-11-15T07:20:15;100212.27;;;8.13;74.95
74403;BME280;62837;51.082;13.744;2022-11-15T07:23:06;100215.34;;;8.28;74.09
74403;BME280;62837;51.082;13.744;2022-11-15T07:25:57;100216.05;;;8.43;74.13
74403;BME280;62837;51.082;13.744;2022-11-15T07:28:47;100218.58;;;8.57;73.65
74403;BME280;62837;51.082;13.744;2022-11-15T07:31:37;100219.73;;;8.71;73.38
74403;BME280;62837;51.082;13.744;2022-11-15T07:34:27;100214.47;;;8.87;73.24
74403;BME280;62837;51.082;13.744;2022-11-15T07:37:16;100218.27;;;8.98;73.17
74403;BME280;62837;51.082;13.744;2022-11-15T07:40:08;100223.32;;;9.15;73.15
74403;BME280;62837;51.082;13.744;2022-11-15T07:43:02;100223.19;;;9.34;72.86
74403;BME280;62837;51.082;13.744;2022-11-15T07:45:52;100215.13;;;9.52;72.40
74403;BME280;62837;51.082;13.744;2022-11-15T07:48:46;100214.41;;;9.71;72.27
74403;BME280;62837;51.082;13.744;2022-11-15T07:51:36;100210.77;;;9.95;71.90
74403;BME280;62837;51.082;13.744;2022-11-15T07:54:25;100214.65;;;10.19;71.77
74403;BME280;62837;51.082;13.744;2022-11-15T07:57:15;100213.19;;;10.44;71.56
74403;BME280;62837;51.082;13.744;2022-11-15T08:00:06;100211.78;;;10.69;70.84
74403;BME280;62837;51.082;13.744;2022-11-15T08:03:02;100206.31;;;10.91;70.19
74403;BME280;62837;51.082;13.744;2022-11-15T08:05:52;100206.82;;;11.12;69.45
74403;BME280;62837;51.082;13.744;2022-11-15T08:08:42;100209.77;;;11.28;69.01
74403;BME280;62837;51.082;13.744;2022-11-15T08:11:32;100202.62;;;11.42;68.59
74403;BME280;62837;51.082;13.744;2022-11-15T08:14:21;100200.04;;;11.59;67.96
74403;BME280;62837;51.082;13.744;2022-11-15T08:17:10;100199.67;;;11.75;67.57
74403;BME280;62837;51.082;13.744;2022-11-15T08:20:00;100196.00;;;11.84;66.92
74403;BME280;62837;51.082;13.744;2022-11-15T08:22:49;100192.16;;;11.93;66.92
74403;BME280;62837;51.082;13.744;2022-11-15T08:25:39;100194.77;;;12.12;66.65
74403;BME280;62837;51.082;13.744;2022-11-15T08:28:29;100192.59;;;12.29;66.30
74403;BME280;62837;51.082;13.744;2022-11-15T08:31:19;100184.54;;;12.45;65.95
74403;BME280;62837;51.082;13.744;2022-11-15T08:34:08;100186.69;;;12.59;65.23
74403;BME280;62837;51.082;13.744;2022-11-15T08:36:58;100187.66;;;12.69;64.59
74403;BME280;62837;51.082;13.744;2022-11-15T08:39:47;100188.55;;;12.76;64.01
74403;BME280;62837;51.082;13.744;2022-11-15T08:42:37;100183.23;;;12.81;63.77
74403;BME280;62837;51.082;13.744;2022-11-15T08:45:26;100188.63;;;12.87;63.66
74403;BME280;62837;51.082;13.744;2022-11-15T08:48:16;100186.45;;;12.97;63.45
74403;BME280;62837;51.082;13.744;2022-11-15T08:51:05;100182.90;;;13.07;63.28
74403;BME280;62837;51.082;13.744;2022-11-15T08:53:55;100178.27;;;13.16;62.94
74403;BME280;62837;51.082;13.744;2022-11-15T08:56:45;100180.77;;;13.24;62.52
74403;BME280;62837;51.082;13.744;2022-11-15T08:59:34;100179.61;;;13.28;62.36
74403;BME280;62837;51.082;13.744;2022-11-15T09:02:23;100175.88;;;13.31;61.93
74403;BME280;62837;51.082;13.744;2022-11-15T09:05:13;100173.73;;;13.31;61.83
74403;BME280;62837;51.082;13.744;2022-11-15T09:08:04;100167.05;;;13.30;61.52
74403;BME280;62837;51.082;13.744;2022-11-15T09:11:13;100164.87;;;13.24;61.48
74403;BME280;62837;51.082;13.744;2022-11-15T09:14:04;100162.16;;;13.22;61.81
74403;BME280;62837;51.082;13.744;2022-11-15T09:16:54;100161.83;;;13.27;61.54
74403;BME280;62837;51.082;13.744;2022-11-15T09:19:43;100157.74;;;13.26;61.33
74403;BME280;62837;51.082;13.744;2022-11-15T09:22:33;100158.28;;;13.27;61.32
74403;BME280;62837;51.082;13.744;2022-11-15T09:25:22;100156.83;;;13.34;61.32
74403;BME280;62837;51.082;13.744;2022-11-15T09:28:12;100163.98;;;13.36;60.89
74403;BME280;62837;51.082;13.744;2022-11-15T09:31:03;100167.80;;;13.39;61.43
74403;BME280;62837;51.082;13.744;2022-11-15T09:33:53;100168.86;;;13.46;61.13
74403;BME280;62837;51.082;13.744;2022-11-15T09:36:43;100164.64;;;13.49;61.05
74403;BME280;62837;51.082;13.744;2022-11-15T09:39:32;100153.52;;;13.55;60.89
74403;BME280;62837;51.082;13.744;2022-11-15T09:42:34;100151.08;;;13.56;60.92
74403;BME280;62837;51.082;13.744;2022-11-15T09:45:34;100147.98;;;13.55;60.61
74403;BME280;62837;51.082;13.744;2022-11-15T09:48:34;100147.14;;;13.57;60.67
74403;BME280;62837;51.082;13.744;2022-11-15T09:51:32;100147.14;;;13.60;60.54
74403;BME280;62837;51.082;13.744;2022-11-15T09:54:09;100145.35;;;13.64;60.44
74403;BME280;62837;51.082;13.744;2022-11-15T09:57:06;100144.48;;;13.68;60.27
74403;BME280;62837;51.082;13.744;2022-11-15T10:00:11;100145.17;;;13.71;60.06
74403;BME280;62837;51.082;13.744;2022-11-15T10:03:12;100142.91;;;13.71;59.91
74403;BME280;62837;51.082;13.744;2022-11-15T10:05:45;100133.02;;;13.72;60.00
74403;BME280;62837;51.082;13.744;2022-11-15T10:08:43;100133.77;;;13.75;59.77
74403;BME280;62837;51.082;13.744;2022-11-15T10:11:19;100126.12;;;13.73;59.89
74403;BME280;62837;51.082;13.744;2022-11-15T10:14:12;100124.70;;;13.75;59.93
74403;BME280;62837;51.082;13.744;2022-11-15T10:17:21;100122.49;;;13.77;59.71
74403;BME280;62837;51.082;13.744;2022-11-15T10:20:05;100123.27;;;13.75;59.60
74403;BME280;62837;51.082;13.744;2022-11-15T10:22:44;100115.57;;;13.69;59.56
74403;BME280;62837;51.082;13.744;2022-11-15T10:25:20;100111.90;;;13.65;59.69
74403;BME280;62837;51.082;13.744;2022-11-15T10:28:01;100101.08;;;13.56;60.26
74403;BME280;62837;51.082;13.744;2022-11-15T10:30:36;100111.21;;;13.61;60.34
74403;BME280;62837;51.082;13.744;2022-11-15T10:33:16;100105.91;;;13.60;59.94
74403;BME280;62837;51.082;13.744;2022-11-15T10:35:48;100099.80;;;13.58;59.97
74403;BME280;62837;51.082;13.744;2022-11-15T10:38:19;100094.48;;;13.57;60.01
74403;BME280;62837;51.082;13.744;2022-11-15T10:40:49;100083.83;;;13.57;60.11
74403;BME280;62837;51.082;13.744;2022-11-15T10:43:36;100082.87;;;13.52;60.08
74403;BME280;62837;51.082;13.744;2022-11-15T10:46:20;100076.73;;;13.46;60.43
74403;BME280;62837;51.082;13.744;2022-11-15T10:49:15;100074.42;;;13.42;60.34
74403;BME280;62837;51.082;13.744;2022-11-15T10:51:48;100073.27;;;13.41;60.69
74403;BME280;62837;51.082;13.744;2022-11-15T10:54:27;100075.91;;;13.43;61.04
74403;BME280;62837;51.082;13.744;2022-11-15T10:57:00;100076.34;;;13.46;60.92
74403;BME280;62837;51.082;13.744;2022-11-15T10:59:37;100072.67;;;13.49;60.74
74403;BME280;62837;51.082;13.744;2022-11-15T11:02:28;100069.64;;;13.47;60.60
74403;BME280;62837;51.082;13.744;2022-11-15T11:05:00;100067.48;;;13.48;60.51
74403;BME280;62837;51.082;13.744;2022-11-15T11:07:33;100063.83;;;13.51;60.50
74403;BME280;62837;51.082;13.744;2022-11-15T11:10:19;100057.23;;;13.55;60.52
74403;BME280;62837;51.082;13.744;2022-11-15T11:13:23;100052.95;;;13.58;60.53
74403;BME280;62837;51.082;13.744;2022-11-15T11:15:58;100046.65;;;13.63;60.64
74403;BME280;62837;51.082;13.744;2022-11-15T11:18:34;100042.39;;;13.65;60.36
74403;BME280;62837;51.082;13.744;2022-11-15T11:21:13;100038.81;;;13.63;60.15
74403;BME280;62837;51.082;13.744;2022-11-15T11:23:48;100038.16;;;13.62;60.19
74403;BME280;62837;51.082;13.744;2022-11-15T11:26:38;100037.20;;;13.58;60.24
74403;BME280;62837;51.082;13.744;2022-11-15T11:29:24;100030.23;;;13.56;60.10
74403;BME280;62837;51.082;13.744;2022-11-15T11:32:01;100025.80;;;13.53;60.03
74403;BME280;62837;51.082;13.744;2022-11-15T11:34:44;100019.25;;;13.49;60.03
74403;BME280;62837;51.082;13.744;2022-11-15T11:37:28;100013.38;;;13.44;60.01
74403;BME280;62837;51.082;13.744;2022-11-15T11:40:10;100012.91;;;13.40;60.33
74403;BME280;62837;51.082;13.744;2022-11-15T11:42:50;100012.59;;;13.37;60.43
74403;BME280;62837;51.082;13.744;2022-11-15T11:45:43;100015.81;;;13.35;60.46
74403;BME280;62837;51.082;13.744;2022-11-15T11:48:26;100016.42;;;13.34;60.36
74403;BME280;62837;51.082;13.744;2022-11-15T11:51:04;100009.52;;;13.33;60.38
74403;BME280;62837;51.082;13.744;2022-11-15T11:53:41;100010.59;;;13.29;60.25
74403;BME280;62837;51.082;13.744;2022-11-15T11:56:23;100007.44;;;13.23;60.35
74403;BME280;62837;51.082;13.744;2022-11-15T11:58:57;100002.95;;;13.17;60.53
74403;BME280;62837;51.082;13.744;2022-11-15T12:01:34;100001.79;;;13.16;60.86
74403;BME280;62837;51.082;13.744;2022-11-15T12:04:11;100003.36;;;13.13;60.74
74403;BME280;62837;51.082;13.744;2022-11-15T12:06:50;99999.17;;;13.08;60.67
74403;BME280;62837;51.082;13.744;2022-11-15T12:09:29;99990.59;;;13.02;60.58
74403;BME280;62837;51.082;13.744;2022-11-15T12:12:00;99983.92;;;13.00;60.81
74403;BME280;62837;51.082;13.744;2022-11-15T12:14:38;99982.25;;;13.02;61.24
74403;BME280;62837;51.082;13.744;2022-11-15T12:17:11;99978.09;;;13.05;60.87
74403;BME280;62837;51.082;13.744;2022-11-15T12:19:43;99973.83;;;13.07;60.80
74403;BME280;62837;51.082;13.744;2022-11-15T12:22:20;99970.63;;;13.06;60.67
74403;BME280;62837;51.082;13.744;2022-11-15T12:24:55;99968.31;;;13.06;60.79
74403;BME280;62837;51.082;13.744;2022-11-15T12:27:32;99961.05;;;13.03;60.74
74403;BME280;62837;51.082;13.744;2022-11-15T12:30:07;99962.12;;;12.99;60.94
74403;BME280;62837;51.082;13.744;2022-11-15T12:32:48;99961.73;;;12.98;60.95
74403;BME280;62837;51.082;13.744;2022-11-15T12:35:27;99954.67;;;12.98;60.94
74403;BME280;62837;51.082;13.744;2022-11-15T12:37:58;99944.30;;;12.96;61.02
74403;BME280;62837;51.082;13.744;2022-11-15T12:40:37;99936.91;;;12.95;61.19
74403;BME280;62837;51.082;13.744;2022-11-15T12:43:36;99933.90;;;12.94;61.09
74403;BME280;62837;51.082;13.744;2022-11-15T12:46:13;99934.76;;;12.88;61.00
74403;BME280;62837;51.082;13.744;2022-11-15T12:48:53;99934.67;;;12.83;61.27
74403;BME280;62837;51.082;13.744;2022-11-15T12:54:56;99936.36;;;12.79;61.42
74403;BME280;62837;51.082;13.744;2022-11-15T12:57:38;99926.81;;;12.78;61.36
74403;BME280;62837;51.082;13.744;2022-11-15T13:06:39;99918.73;;;12.65;61.48
74403;BME280;62837;51.082;13.744;2022-11-15T13:12:53;99909.58;;;12.51;61.77
74403;BME280;62837;51.082;13.744;2022-11-15T13:15:51;99909.92;;;12.51;61.57
74403;BME280;62837;51.082;13.744;2022-11-15T13:18:32;99906.08;;;12.45;61.67
74403;BME280;62837;51.082;13.744;2022-11-15T13:21:17;99904.23;;;12.39;61.91
74403;BME280;62837;51.082;13.744;2022-11-15T13:24:12;99903.58;;;12.36;62.21
74403;BME280;62837;51.082;13.744;2022-11-15T13:26:44;99905.21;;;12.41;62.60
74403;BME280;62837;51.082;13.744;2022-11-15T13:29:18;99905.21;;;12.42;62.28
74403;BME280;62837;51.082;13.744;2022-11-15T13:31:50;99903.77;;;12.42;62.17
74403;BME280;62837;51.082;13.744;2022-11-15T13:34:27;99903.23;;;12.40;62.05
74403;BME280;62837;51.082;13.744;2022-11-15T13:37:31;99905.02;;;12.35;62.11
74403;BME280;62837;51.082;13.744;2022-11-15T13:40:22;99902.61;;;12.32;62.20
74403;BME280;62837;51.082;13.744;2022-11-15T13:42:53;99903.29;;;12.29;62.34
74403;BME280;62837;51.082;13.744;2022-11-15T13:45:24;99896.20;;;12.23;62.23
74403;BME280;62837;51.082;13.744;2022-11-15T13:47:57;99892.15;;;12.15;62.45
74403;BME280;62837;51.082;13.744;2022-11-15T13:50:31;99895.92;;;12.09;62.47
74403;BME280;62837;51.082;13.744;2022-11-15T13:53:05;99896.22;;;12.02;62.43
74403;BME280;62837;51.082;13.744;2022-11-15T13:55:36;99893.48;;;11.95;62.85
74403;BME280;62837;51.082;13.744;2022-11-15T13:58:10;99892.67;;;11.90;62.72
74403;BME280;62837;51.082;13.744;2022-11-15T14:00:44;99888.55;;;11.85;63.00
74403;BME280;62837;51.082;13.744;2022-11-15T14:03:25;99889.02;;;11.78;63.08
74403;BME280;62837;51.082;13.744;2022-11-15T14:06:07;99888.29;;;11.69;63.23
74403;BME280;62837;51.082;13.744;2022-11-15T14:08:41;99887.48;;;11.61;63.29
74403;BME280;62837;51.082;13.744;2022-11-15T14:11:19;99881.37;;;11.54;63.30
74403;BME280;62837;51.082;13.744;2022-11-15T14:14:10;99885.08;;;11.48;63.49
74403;BME280;62837;51.082;13.744;2022-11-15T14:16:43;99887.73;;;11.41;63.63
74403;BME280;62837;51.082;13.744;2022-11-15T14:19:35;99886.14;;;11.36;63.73
74403;BME280;62837;51.082;13.744;2022-11-15T14:22:21;99878.16;;;11.27;63.90
74403;BME280;62837;51.082;13.744;2022-11-15T14:25:15;99881.57;;;11.18;64.31
74403;BME280;62837;51.082;13.744;2022-11-15T14:28:11;99877.28;;;11.13;64.27
74403;BME280;62837;51.082;13.744;2022-11-15T14:30:43;99871.60;;;11.08;64.43
74403;BME280;62837;51.082;13.744;2022-11-15T14:33:21;99869.46;;;11.03;64.46
74403;BME280;62837;51.082;13.744;2022-11-15T14:35:53;99863.19;;;10.98;64.63
74403;BME280;62837;51.082;13.744;2022-11-15T14:38:25;99865.13;;;10.95;64.76
74403;BME280;62837;51.082;13.744;2022-11-15T14:40:56;99865.05;;;10.91;64.78
74403;BME280;62837;51.082;13.744;2022-11-15T14:43:27;99863.83;;;10.86;64.88
74403;BME280;62837;51.082;13.744;2022-11-15T14:45:58;99862.52;;;10.82;65.01
74403;BME280;62837;51.082;13.744;2022-11-15T14:48:29;99868.05;;;10.76;65.25
74403;BME280;62837;51.082;13.744;2022-11-15T14:51:00;99868.44;;;10.72;65.25